createdAt,value
2023-04-17T00:01:08.650Z,309.21
2023-04-17T00:04:15.648Z,315.23
2023-04-17T00:07:22.960Z,295.67
2023-04-17T00:10:42.349Z,287.73
2023-04-17T00:13:48.384Z,286.97
2023-04-17T00:16:55.949Z,280.92
2023-04-17T00:20:06.615Z,316.45
2023-04-17T00:23:13.459Z,340.88
2023-04-17T00:26:22.117Z,362.42
2023-04-17T00:29:28.821Z,332.57
2023-04-17T00:32:34.845Z,336.76
2023-04-17T00:35:41.854Z,334.20
2023-04-17T00:38:47.990Z,337.81
2023-04-17T00:41:59.049Z,354.20
2023-04-17T00:45:05.830Z,364.53
2023-04-17T00:48:14.035Z,400.63
2023-04-17T00:51:20.404Z,436.78
2023-04-17T00:54:28.954Z,470.65
2023-04-17T00:57:38.120Z,479.59
2023-04-17T01:00:44.910Z,435.37
2023-04-17T01:03:52.287Z,450.74
2023-04-17T01:06:59.787Z,396.21
2023-04-17T01:10:07.549Z,361.79
2023-04-17T01:13:20.949Z,350.26
2023-04-17T01:16:28.011Z,354.76
2023-04-17T01:19:35.659Z,320.13
2023-04-17T01:22:42.441Z,325.97
2023-04-17T01:25:51.543Z,315.46
2023-04-17T01:29:01.987Z,329.51
2023-04-17T01:32:10.603Z,350.63
2023-04-17T01:35:17.845Z,351.03
2023-04-17T01:38:23.709Z,336.50
2023-04-17T01:41:33.119Z,348.46
2023-04-17T01:44:39.345Z,373.72
2023-04-17T01:47:46.466Z,359.10
2023-04-17T01:50:52.479Z,350.92
2023-04-17T01:53:59.395Z,349.18
2023-04-17T01:57:08.062Z,366.59
2023-04-17T02:00:17.292Z,358.27
2023-04-17T02:03:24.855Z,406.79
2023-04-17T02:06:32.340Z,460.91
2023-04-17T02:09:39.033Z,432.80
2023-04-17T02:12:50.241Z,361.95
2023-04-17T02:15:57.442Z,335.95
2023-04-17T02:19:09.248Z,313.71
2023-04-17T02:22:15.251Z,336.20
2023-04-17T02:25:22.101Z,350.75
2023-04-17T02:28:30.588Z,330.80
2023-04-17T02:31:44.216Z,294.04
2023-04-17T02:34:50.753Z,292.40
2023-04-17T02:37:58.163Z,297.45
2023-04-17T02:41:05.439Z,300.35
2023-04-17T02:44:16.566Z,307.96
2023-04-17T02:47:24.949Z,328.71
2023-04-17T02:50:32.030Z,379.39
2023-04-17T02:53:46.338Z,432.53
2023-04-17T02:56:53.804Z,469.69
2023-04-17T03:00:02.626Z,436.79
2023-04-17T03:03:10.425Z,388.84
2023-04-17T03:06:16.647Z,370.45
2023-04-17T03:09:25.130Z,375.92
2023-04-17T03:12:31.292Z,370.05
2023-04-17T03:15:40.682Z,351.37
2023-04-17T03:18:46.744Z,356.17
2023-04-17T03:21:53.461Z,341.68
2023-04-17T03:24:59.466Z,344.48
2023-04-17T03:28:13.961Z,362.92
2023-04-17T03:31:24.536Z,397.72
2023-04-17T03:34:34.879Z,354.89
2023-04-17T03:37:41.092Z,324.76
2023-04-17T03:40:48.948Z,308.79
2023-04-17T03:43:54.892Z,294.42
2023-04-17T03:47:04.258Z,327.30
2023-04-17T03:50:11.972Z,338.81
2023-04-17T03:53:25.139Z,341.65
2023-04-17T03:56:32.555Z,322.92
2023-04-17T03:59:39.681Z,353.22
2023-04-17T04:02:49.737Z,375.61
2023-04-17T04:06:04.709Z,355.75
2023-04-17T04:09:10.989Z,329.34
2023-04-17T04:12:18.043Z,320.94
2023-04-17T04:15:25.632Z,325.43
2023-04-17T04:18:41.283Z,331.46
2023-04-17T04:21:47.656Z,325.68
2023-04-17T04:24:55.776Z,296.25
2023-04-17T04:28:13.638Z,291.99
2023-04-17T04:31:21.648Z,282.08
2023-04-17T04:34:30.405Z,282.79
2023-04-17T04:37:37.190Z,285.31
2023-04-17T04:40:52.784Z,300.58
2023-04-17T04:44:00.705Z,301.54
2023-04-17T04:47:20.480Z,302.47
2023-04-17T04:50:32.138Z,298.25
2023-04-17T04:53:38.119Z,289.47
2023-04-17T04:56:46.564Z,298.19
2023-04-17T04:59:54.748Z,332.68
2023-04-17T05:03:13.135Z,426.43
2023-04-17T05:06:22.634Z,400.26
2023-04-17T05:09:49.292Z,318.32
2023-04-17T05:13:05.137Z,286.04
2023-04-17T05:16:12.381Z,272.82
2023-04-17T05:19:20.641Z,272.51
2023-04-17T05:22:39.825Z,276.26
2023-04-17T05:25:49.754Z,270.40
2023-04-17T05:28:57.108Z,280.50
2023-04-17T05:32:08.096Z,279.09
2023-04-17T05:35:50.377Z,278.65
2023-04-17T05:38:59.968Z,265.63
2023-04-17T05:42:07.264Z,273.39
2023-04-17T05:45:16.669Z,328.75
2023-04-17T05:48:23.620Z,286.37
2023-04-17T05:51:31.121Z,272.08
2023-04-17T05:54:40.918Z,267.05
2023-04-17T05:57:50.146Z,249.84
2023-04-17T06:00:57.278Z,259.66
2023-04-17T06:04:05.255Z,257.85
2023-04-17T06:07:12.737Z,255.43
2023-04-17T06:10:21.500Z,243.94
2023-04-17T06:13:28.442Z,254.15
2023-04-17T06:16:35.620Z,250.37
2023-04-17T06:19:42.783Z,260.82
2023-04-17T06:22:49.960Z,274.44
2023-04-17T06:25:59.850Z,278.17
2023-04-17T06:29:05.887Z,253.71
2023-04-17T06:32:14.266Z,228.70
2023-04-17T06:35:20.275Z,229.70
2023-04-17T06:38:36.861Z,227.64
2023-04-17T06:41:45.591Z,233.09
2023-04-17T06:44:52.740Z,229.67
2023-04-17T06:47:58.836Z,215.07
2023-04-17T06:51:05.804Z,212.78
2023-04-17T06:54:12.326Z,205.25
2023-04-17T06:57:22.423Z,207.77
2023-04-17T07:00:29.905Z,202.67
2023-04-17T07:03:39.672Z,201.78
2023-04-17T07:06:52.355Z,195.99
2023-04-17T07:10:03.642Z,203.36
2023-04-17T07:13:12.580Z,187.39
2023-04-17T07:16:21.657Z,188.55
2023-04-17T07:19:31.071Z,203.03
2023-04-17T07:22:37.957Z,203.03
2023-04-17T07:25:50.372Z,197.94
2023-04-17T07:28:59.663Z,202.89
2023-04-17T07:32:07.330Z,210.17
2023-04-17T07:35:14.158Z,211.20
2023-04-17T07:38:20.071Z,199.43
2023-04-17T07:41:26.812Z,199.63
2023-04-17T07:44:35.500Z,199.10
2023-04-17T07:47:47.561Z,201.39
2023-04-17T07:50:58.926Z,200.57
2023-04-17T07:54:05.656Z,197.35
2023-04-17T07:57:11.812Z,183.51
2023-04-17T08:00:22.285Z,178.82
2023-04-17T08:03:28.519Z,185.15
2023-04-17T08:06:39.627Z,180.77
2023-04-17T08:09:45.902Z,177.29
2023-04-17T08:12:55.112Z,181.55
2023-04-17T08:16:12.114Z,186.33
2023-04-17T08:19:20.588Z,200.98
2023-04-17T08:22:28.959Z,206.14
2023-04-17T08:25:42.401Z,204.73
2023-04-17T08:28:48.272Z,197.15
2023-04-17T08:32:12.662Z,204.78
2023-04-17T08:35:20.964Z,215.96
2023-04-17T08:38:54.103Z,250.14
2023-04-17T08:42:05.876Z,226.29
2023-04-17T08:45:18.671Z,225.56
2023-04-17T08:48:28.270Z,220.54
2023-04-17T08:51:35.824Z,209.82
2023-04-17T08:54:41.786Z,202.58
2023-04-17T08:58:02.012Z,193.57
2023-04-17T09:01:13.545Z,178.45
2023-04-17T09:04:40.275Z,175.24
2023-04-17T09:07:50.552Z,176.54
2023-04-17T09:11:21.010Z,168.01
2023-04-17T09:14:35.778Z,180.55
2023-04-17T09:17:42.625Z,185.83
2023-04-17T09:20:57.987Z,195.73
2023-04-17T09:24:07.230Z,187.91
2023-04-17T09:27:29.385Z,187.40
2023-04-17T09:30:41.388Z,175.72
2023-04-17T09:34:00.706Z,173.99
2023-04-17T09:37:22.382Z,183.70
2023-04-17T09:40:46.361Z,188.68
2023-04-17T09:43:53.868Z,179.29
2023-04-17T09:47:01.586Z,161.54
2023-04-17T09:50:12.625Z,157.81
2023-04-17T09:53:23.552Z,153.74
2023-04-17T09:56:31.701Z,149.16
2023-04-17T09:59:44.424Z,144.97
2023-04-17T10:02:53.632Z,139.92
2023-04-17T10:06:00.870Z,126.35
2023-04-17T10:09:10.614Z,127.01
2023-04-17T10:12:21.940Z,115.77
2023-04-17T10:15:31.449Z,116.75
2023-04-17T10:18:37.584Z,114.34
2023-04-17T10:21:46.386Z,118.52
2023-04-17T10:25:17.696Z,110.86
2023-04-17T10:28:58.303Z,109.43
2023-04-17T10:32:29.260Z,118.40
2023-04-17T10:35:40.014Z,117.58
2023-04-17T10:38:49.937Z,116.31
2023-04-17T10:42:07.439Z,115.50
2023-04-17T10:45:25.036Z,113.87
2023-04-17T10:48:42.664Z,116.51
2023-04-17T10:51:49.810Z,115.08
2023-04-17T10:55:08.216Z,113.54
2023-04-17T10:58:16.724Z,114.29
2023-04-17T11:01:29.800Z,110.94
2023-04-17T11:04:36.830Z,104.87
2023-04-17T11:07:52.526Z,101.93
2023-04-17T11:11:00.068Z,109.72
2023-04-17T11:14:14.458Z,106.35
2023-04-17T11:17:25.166Z,119.90
2023-04-17T11:20:34.597Z,120.46
2023-04-17T11:23:40.465Z,149.62
2023-04-17T11:26:47.935Z,174.09
2023-04-17T11:29:53.953Z,142.52
2023-04-17T11:33:08.956Z,208.76
2023-04-17T11:36:20.530Z,279.65
2023-04-17T11:39:31.190Z,294.68
2023-04-17T11:42:37.495Z,272.14
2023-04-17T11:45:47.512Z,199.97
2023-04-17T11:48:57.344Z,170.63
2023-04-17T11:52:07.389Z,209.34
2023-04-17T11:55:13.733Z,183.84
2023-04-17T11:58:24.417Z,170.80
2023-04-17T12:01:32.066Z,183.94
2023-04-17T12:04:42.705Z,194.66
2023-04-17T12:07:48.816Z,182.38
2023-04-17T12:10:55.656Z,185.32
2023-04-17T12:14:08.477Z,157.56
2023-04-17T12:17:21.904Z,126.33
2023-04-17T12:20:30.482Z,125.99
2023-04-17T12:23:37.211Z,144.51
2023-04-17T12:26:49.477Z,156.48
2023-04-17T12:29:56.397Z,164.10
2023-04-17T12:33:02.258Z,182.83
2023-04-17T12:36:12.698Z,204.28
2023-04-17T12:39:18.835Z,218.47
2023-04-17T12:42:31.425Z,171.55
2023-04-17T12:45:44.123Z,170.64
2023-04-17T12:48:56.875Z,166.01
2023-04-17T12:52:05.357Z,175.66
2023-04-17T12:55:13.850Z,158.70
2023-04-17T12:58:19.700Z,157.36
2023-04-17T13:01:31.635Z,164.88
2023-04-17T13:04:37.544Z,172.48
2023-04-17T13:07:46.993Z,184.68
2023-04-17T13:10:56.553Z,174.19
2023-04-17T13:14:09.516Z,194.78
2023-04-17T13:17:18.962Z,204.97
2023-04-17T13:20:26.018Z,191.98
2023-04-17T13:23:34.616Z,186.62
2023-04-17T13:26:42.968Z,183.75
2023-04-17T13:29:49.406Z,177.47
2023-04-17T13:32:56.904Z,186.60
2023-04-17T13:36:03.540Z,185.77
2023-04-17T13:39:13.652Z,186.09
2023-04-17T13:42:22.352Z,181.83
2023-04-17T13:45:30.022Z,177.13
2023-04-17T13:48:36.032Z,170.30
2023-04-17T13:51:43.174Z,162.84
2023-04-17T13:54:52.505Z,171.76
2023-04-17T13:58:00.937Z,187.10
2023-04-17T14:01:07.383Z,195.91
2023-04-17T14:04:14.682Z,207.43
2023-04-17T14:07:21.259Z,233.77
2023-04-17T14:10:30.785Z,225.15
2023-04-17T14:13:36.699Z,217.13
2023-04-17T14:16:46.452Z,167.66
2023-04-17T14:19:52.812Z,155.67
2023-04-17T14:22:59.817Z,134.23
2023-04-17T14:26:08.708Z,124.15
2023-04-17T14:29:15.924Z,120.51
2023-04-17T14:32:22.032Z,122.20
2023-04-17T14:35:28.902Z,125.70
2023-04-17T14:38:35.363Z,140.81
2023-04-17T14:41:45.682Z,155.50
2023-04-17T14:44:52.167Z,165.08
2023-04-17T14:48:02.076Z,166.12
2023-04-17T14:51:12.740Z,168.03
2023-04-17T14:54:19.469Z,165.93
2023-04-17T14:57:28.249Z,178.86
2023-04-17T15:00:35.253Z,179.25
2023-04-17T15:03:43.112Z,203.94
2023-04-17T15:06:51.103Z,210.41
2023-04-17T15:09:56.977Z,210.16
2023-04-17T15:13:06.341Z,171.09
2023-04-17T15:16:13.368Z,139.86
2023-04-17T15:19:20.209Z,131.04
2023-04-17T15:22:26.181Z,129.30
2023-04-17T15:25:33.185Z,128.80
2023-04-17T15:28:43.455Z,130.63
2023-04-17T15:31:52.885Z,136.27
2023-04-17T15:34:58.996Z,154.79
2023-04-17T15:38:05.781Z,159.01
2023-04-17T15:41:11.662Z,155.51
2023-04-17T15:44:21.325Z,169.85
2023-04-17T15:47:31.187Z,172.03
2023-04-17T15:50:38.169Z,175.16
2023-04-17T15:53:46.421Z,160.44
2023-04-17T15:56:53.222Z,157.16
2023-04-17T16:00:02.126Z,145.02
2023-04-17T16:03:16.951Z,150.42
2023-04-17T16:06:23.180Z,153.65
2023-04-17T16:09:31.936Z,158.69
2023-04-17T16:12:41.556Z,147.71
2023-04-17T16:15:57.827Z,154.37
2023-04-17T16:19:03.902Z,213.99
2023-04-17T16:22:10.777Z,213.42
2023-04-17T16:25:17.803Z,204.26
2023-04-17T16:28:27.365Z,208.44
2023-04-17T16:31:36.466Z,209.94
2023-04-17T16:34:43.621Z,223.72
2023-04-17T16:37:54.309Z,213.80
2023-04-17T16:41:02.177Z,189.85
2023-04-17T16:44:08.664Z,192.90
2023-04-17T16:47:18.580Z,179.86
2023-04-17T16:50:25.779Z,185.04
2023-04-17T16:53:36.503Z,184.67
2023-04-17T16:56:43.269Z,190.86
2023-04-17T16:59:50.111Z,201.16
2023-04-17T17:02:58.854Z,194.85
2023-04-17T17:06:07.382Z,197.95
2023-04-17T17:09:15.812Z,208.53
2023-04-17T17:12:28.061Z,214.10
2023-04-17T17:15:38.840Z,218.32
2023-04-17T17:18:48.586Z,217.33
2023-04-17T17:21:55.474Z,220.30
2023-04-17T17:25:02.200Z,222.15
2023-04-17T17:28:13.984Z,211.11
2023-04-17T17:31:23.824Z,200.47
2023-04-17T17:34:36.813Z,191.54
2023-04-17T17:37:43.948Z,180.01
2023-04-17T17:40:52.035Z,163.06
2023-04-17T17:43:59.273Z,165.66
2023-04-17T17:47:07.739Z,175.98
2023-04-17T17:50:29.350Z,181.15
2023-04-17T17:53:39.310Z,181.29
2023-04-17T17:56:46.316Z,170.62
2023-04-17T17:59:52.332Z,157.18
2023-04-17T18:02:59.416Z,155.14
2023-04-17T18:06:10.885Z,155.74
2023-04-17T18:09:17.706Z,162.03
2023-04-17T18:12:23.718Z,174.75
2023-04-17T18:15:30.940Z,181.75
2023-04-17T18:18:45.336Z,187.75
2023-04-17T18:21:55.082Z,162.33
2023-04-17T18:25:01.069Z,140.17
2023-04-17T18:28:09.354Z,140.30
2023-04-17T18:31:15.583Z,138.17
2023-04-17T18:34:32.084Z,138.60
2023-04-17T18:37:43.544Z,150.24
2023-04-17T18:40:50.348Z,184.41
2023-04-17T18:43:56.409Z,207.60
2023-04-17T18:47:10.727Z,206.20
2023-04-17T18:50:29.616Z,187.71
2023-04-17T18:53:47.666Z,164.65
2023-04-17T18:56:59.428Z,155.21
2023-04-17T19:00:07.435Z,138.32
2023-04-17T19:03:13.601Z,134.85
2023-04-17T19:06:20.537Z,129.39
2023-04-17T19:09:29.286Z,125.41
2023-04-17T19:12:36.418Z,115.25
2023-04-17T19:15:42.953Z,127.69
2023-04-17T19:18:49.780Z,115.99
2023-04-17T19:21:55.829Z,118.77
2023-04-17T19:25:05.210Z,127.31
2023-04-17T19:28:11.751Z,123.94
2023-04-17T19:31:18.605Z,123.09
2023-04-17T19:34:24.709Z,123.23
2023-04-17T19:37:31.674Z,122.51
2023-04-17T19:40:40.298Z,126.57
2023-04-17T19:43:47.395Z,133.73
2023-04-17T19:46:54.071Z,131.14
2023-04-17T19:50:06.961Z,126.74
2023-04-17T19:53:12.922Z,121.25
2023-04-17T19:56:22.389Z,115.27
2023-04-17T19:59:28.381Z,120.28
2023-04-17T20:02:37.416Z,124.07
2023-04-17T20:05:43.419Z,135.38
2023-04-17T20:08:50.196Z,132.74
2023-04-17T20:11:58.927Z,128.12
2023-04-17T20:15:06.187Z,135.25
2023-04-17T20:18:14.551Z,141.89
2023-04-17T20:21:21.987Z,134.61
2023-04-17T20:24:28.135Z,128.12
2023-04-17T20:27:37.524Z,127.31
2023-04-17T20:30:43.504Z,152.36
2023-04-17T20:33:51.036Z,136.64
2023-04-17T20:36:56.983Z,140.61
2023-04-17T20:40:06.269Z,123.77
2023-04-17T20:43:14.805Z,118.99
2023-04-17T20:46:21.659Z,120.53
2023-04-17T20:49:27.672Z,120.92
2023-04-17T20:52:36.810Z,116.72
2023-04-17T20:55:42.898Z,114.53
2023-04-17T20:58:52.369Z,100.56
2023-04-17T21:02:00.565Z,96.49
2023-04-17T21:05:09.320Z,92.53
2023-04-17T21:08:15.363Z,90.05
2023-04-17T21:11:28.686Z,92.86
2023-04-17T21:14:40.023Z,84.47
2023-04-17T21:17:48.101Z,80.29
2023-04-17T21:20:54.403Z,99.96
2023-04-17T21:24:06.306Z,81.14
2023-04-17T21:27:12.408Z,81.04
2023-04-17T21:30:22.040Z,86.20
2023-04-17T21:33:27.896Z,88.97
2023-04-17T21:36:34.714Z,90.43
2023-04-17T21:39:40.485Z,89.81
2023-04-17T21:42:56.407Z,92.89
2023-04-17T21:46:05.070Z,91.23
2023-04-17T21:49:11.854Z,95.20
2023-04-17T21:52:18.180Z,92.77
2023-04-17T21:55:26.495Z,92.63
2023-04-17T21:58:32.986Z,97.02
2023-04-17T22:01:49.263Z,94.42
2023-04-17T22:04:55.542Z,96.21
2023-04-17T22:08:02.471Z,95.99
2023-04-17T22:11:08.637Z,96.65
2023-04-17T22:14:15.765Z,98.56
2023-04-17T22:17:24.387Z,105.78
2023-04-17T22:20:31.855Z,100.80
2023-04-17T22:23:37.769Z,92.97
2023-04-17T22:26:44.529Z,90.17
2023-04-17T22:29:50.493Z,94.13
2023-04-17T22:32:59.913Z,91.91
2023-04-17T22:36:05.921Z,94.16
2023-04-17T22:39:13.674Z,88.31
2023-04-17T22:43:01.703Z,91.77
2023-04-17T22:46:08.747Z,91.70
2023-04-17T22:49:17.744Z,91.41
2023-04-17T22:52:24.771Z,89.61
2023-04-17T22:55:30.860Z,88.02
2023-04-17T22:58:37.987Z,93.39
2023-04-17T23:01:43.977Z,91.13
2023-04-17T23:04:53.684Z,93.17
2023-04-17T23:07:59.613Z,87.44
2023-04-17T23:11:37.175Z,83.23
2023-04-17T23:14:43.769Z,85.06
2023-04-17T23:17:50.549Z,129.41
2023-04-17T23:20:59.281Z,84.40
2023-04-17T23:24:06.609Z,82.14
2023-04-17T23:27:12.748Z,82.67
2023-04-17T23:30:19.761Z,86.90
2023-04-17T23:33:25.733Z,84.24
2023-04-17T23:36:34.981Z,86.23
2023-04-17T23:39:40.989Z,86.35
2023-04-17T23:42:48.418Z,85.54
2023-04-17T23:45:54.238Z,84.45
2023-04-17T23:49:00.976Z,82.81
2023-04-17T23:52:09.601Z,81.92
2023-04-17T23:55:16.357Z,81.50
2023-04-17T23:58:22.534Z,84.11
